sensor_id;sensor_type;location;lat;lon;timestamp;temperature;humidity
65195;DHT22;64548;-32.886;-68.826;2022-10-31T00:01:38;15.10;13.50
65195;DHT22;64548;-32.886;-68.826;2022-10-31T00:04:10;15.30;13.90
65195;DHT22;64548;-32.886;-68.826;2022-10-31T00:06:42;15.10;13.90
65195;DHT22;64548;-32.886;-68.826;2022-10-31T00:09:10;15.10;13.90
65195;DHT22;64548;-32.886;-68.826;2022-10-31T00:11:39;15.70;14.20
65195;DHT22;64548;-32.886;-68.826;2022-10-31T00:14:07;15.30;13.90
65195;DHT22;64548;-32.886;-68.826;2022-10-31T00:16:36;14.20;12.80
65195;DHT22;64548;-32.886;-68.826;2022-10-31T00:19:11;15.20;14.50
65195;DHT22;64548;-32.886;-68.826;2022-10-31T00:21:39;15.00;13.90
65195;DHT22;64548;-32.886;-68.826;2022-10-31T00:24:08;15.10;14.20
65195;DHT22;64548;-32.886;-68.826;2022-10-31T00:26:39;15.20;14.10
65195;DHT22;64548;-32.886;-68.826;2022-10-31T00:29:07;15.30;14.20
65195;DHT22;64548;-32.886;-68.826;2022-10-31T00:31:35;15.20;13.80
65195;DHT22;64548;-32.886;-68.826;2022-10-31T00:34:04;15.10;14.30
65195;DHT22;64548;-32.886;-68.826;2022-10-31T00:36:35;15.00;13.80
65195;DHT22;64548;-32.886;-68.826;2022-10-31T00:39:03;18.50;18.00
65195;DHT22;64548;-32.886;-68.826;2022-10-31T00:41:31;15.20;16.00
65195;DHT22;64548;-32.886;-68.826;2022-10-31T00:44:00;15.20;15.00
65195;DHT22;64548;-32.886;-68.826;2022-10-31T00:46:33;14.90;14.50
65195;DHT22;64548;-32.886;-68.826;2022-10-31T00:49:03;14.90;14.30
65195;DHT22;64548;-32.886;-68.826;2022-10-31T00:51:33;15.00;14.50
65195;DHT22;64548;-32.886;-68.826;2022-10-31T00:54:01;15.00;14.40
65195;DHT22;64548;-32.886;-68.826;2022-10-31T00:56:29;14.80;14.20
65195;DHT22;64548;-32.886;-68.826;2022-10-31T00:58:57;14.80;14.40
65195;DHT22;64548;-32.886;-68.826;2022-10-31T01:01:26;14.70;14.30
65195;DHT22;64548;-32.886;-68.826;2022-10-31T01:03:54;14.70;14.50
65195;DHT22;64548;-32.886;-68.826;2022-10-31T01:06:22;14.60;14.30
65195;DHT22;64548;-32.886;-68.826;2022-10-31T01:08:50;14.70;14.80
65195;DHT22;64548;-32.886;-68.826;2022-10-31T01:11:21;14.70;14.90
65195;DHT22;64548;-32.886;-68.826;2022-10-31T01:13:54;14.80;15.40
65195;DHT22;64548;-32.886;-68.826;2022-10-31T01:16:25;14.60;15.00
65195;DHT22;64548;-32.886;-68.826;2022-10-31T01:18:53;14.80;15.10
65195;DHT22;64548;-32.886;-68.826;2022-10-31T01:21:27;14.60;15.20
65195;DHT22;64548;-32.886;-68.826;2022-10-31T01:23:56;14.60;15.00
65195;DHT22;64548;-32.886;-68.826;2022-10-31T01:26:27;14.70;15.00
65195;DHT22;64548;-32.886;-68.826;2022-10-31T01:29:03;14.50;15.50
65195;DHT22;64548;-32.886;-68.826;2022-10-31T01:31:34;14.60;15.20
65195;DHT22;64548;-32.886;-68.826;2022-10-31T01:34:06;14.60;15.50
65195;DHT22;64548;-32.886;-68.826;2022-10-31T01:36:38;14.50;15.30
65195;DHT22;64548;-32.886;-68.826;2022-10-31T01:39:12;14.70;15.60
65195;DHT22;64548;-32.886;-68.826;2022-10-31T01:41:47;14.60;15.40
65195;DHT22;64548;-32.886;-68.826;2022-10-31T01:47:00;14.50;15.00
65195;DHT22;64548;-32.886;-68.826;2022-10-31T01:49:36;14.60;14.60
65195;DHT22;64548;-32.886;-68.826;2022-10-31T01:57:36;14.40;15.00
65195;DHT22;64548;-32.886;-68.826;2022-10-31T02:00:08;14.60;15.10
65195;DHT22;64548;-32.886;-68.826;2022-10-31T02:02:37;14.30;15.20
65195;DHT22;64548;-32.886;-68.826;2022-10-31T02:05:10;14.30;15.30
65195;DHT22;64548;-32.886;-68.826;2022-10-31T02:07:51;14.20;14.80
65195;DHT22;64548;-32.886;-68.826;2022-10-31T02:10:23;14.30;14.70
65195;DHT22;64548;-32.886;-68.826;2022-10-31T02:12:55;14.30;14.30
65195;DHT22;64548;-32.886;-68.826;2022-10-31T02:15:24;14.30;15.10
65195;DHT22;64548;-32.886;-68.826;2022-10-31T02:17:53;14.30;14.90
65195;DHT22;64548;-32.886;-68.826;2022-10-31T02:20:29;13.90;15.30
65195;DHT22;64548;-32.886;-68.826;2022-10-31T02:23:19;13.80;15.60
65195;DHT22;64548;-32.886;-68.826;2022-10-31T02:31:35;13.40;15.50
65195;DHT22;64548;-32.886;-68.826;2022-10-31T02:39:22;13.80;16.20
65195;DHT22;64548;-32.886;-68.826;2022-10-31T02:42:55;11.00;12.60
65195;DHT22;64548;-32.886;-68.826;2022-10-31T02:47:37;13.70;15.50
65195;DHT22;64548;-32.886;-68.826;2022-10-31T02:50:28;13.80;16.20
65195;DHT22;64548;-32.886;-68.826;2022-10-31T02:52:57;13.90;15.50
65195;DHT22;64548;-32.886;-68.826;2022-10-31T02:58:14;13.40;14.70
65195;DHT22;64548;-32.886;-68.826;2022-10-31T03:01:06;13.80;15.50
65195;DHT22;64548;-32.886;-68.826;2022-10-31T03:04:04;11.10;12.20
65195;DHT22;64548;-32.886;-68.826;2022-10-31T03:06:50;13.70;14.70
65195;DHT22;64548;-32.886;-68.826;2022-10-31T03:09:39;13.30;13.60
65195;DHT22;64548;-32.886;-68.826;2022-10-31T03:12:29;14.10;14.80
65195;DHT22;64548;-32.886;-68.826;2022-10-31T03:18:07;13.10;13.60
65195;DHT22;64548;-32.886;-68.826;2022-10-31T03:20:50;13.60;14.20
65195;DHT22;64548;-32.886;-68.826;2022-10-31T03:23:24;10.10;11.30
65195;DHT22;64548;-32.886;-68.826;2022-10-31T03:25:55;13.50;14.90
65195;DHT22;64548;-32.886;-68.826;2022-10-31T03:28:29;11.70;12.20
65195;DHT22;64548;-32.886;-68.826;2022-10-31T03:31:01;10.50;11.20
65195;DHT22;64548;-32.886;-68.826;2022-10-31T03:33:35;13.20;15.30
65195;DHT22;64548;-32.886;-68.826;2022-10-31T03:36:08;13.50;14.60
65195;DHT22;64548;-32.886;-68.826;2022-10-31T03:38:38;13.50;14.90
65195;DHT22;64548;-32.886;-68.826;2022-10-31T03:41:14;11.10;12.50
65195;DHT22;64548;-32.886;-68.826;2022-10-31T03:44:00;13.20;14.80
65195;DHT22;64548;-32.886;-68.826;2022-10-31T03:46:30;12.90;15.60
65195;DHT22;64548;-32.886;-68.826;2022-10-31T03:48:59;12.90;14.50
65195;DHT22;64548;-32.886;-68.826;2022-10-31T03:51:48;13.10;14.60
65195;DHT22;64548;-32.886;-68.826;2022-10-31T03:54:43;12.90;14.60
65195;DHT22;64548;-32.886;-68.826;2022-10-31T03:57:20;13.00;15.60
65195;DHT22;64548;-32.886;-68.826;2022-10-31T04:00:11;13.30;15.10
65195;DHT22;64548;-32.886;-68.826;2022-10-31T04:02:45;13.10;15.10
65195;DHT22;64548;-32.886;-68.826;2022-10-31T04:05:17;12.90;14.90
65195;DHT22;64548;-32.886;-68.826;2022-10-31T04:07:50;12.90;15.40
65195;DHT22;64548;-32.886;-68.826;2022-10-31T04:10:19;12.70;15.80
65195;DHT22;64548;-32.886;-68.826;2022-10-31T04:13:03;12.60;14.90
65195;DHT22;64548;-32.886;-68.826;2022-10-31T04:15:34;12.60;15.20
65195;DHT22;64548;-32.886;-68.826;2022-10-31T04:18:05;12.50;15.20
65195;DHT22;64548;-32.886;-68.826;2022-10-31T04:20:40;15.10;18.70
65195;DHT22;64548;-32.886;-68.826;2022-10-31T04:23:24;12.70;15.70
65195;DHT22;64548;-32.886;-68.826;2022-10-31T04:25:52;12.60;15.80
65195;DHT22;64548;-32.886;-68.826;2022-10-31T04:28:20;12.40;17.50
65195;DHT22;64548;-32.886;-68.826;2022-10-31T04:30:49;11.20;17.90
65195;DHT22;64548;-32.886;-68.826;2022-10-31T04:33:18;12.10;19.10
65195;DHT22;64548;-32.886;-68.826;2022-10-31T04:35:47;11.90;18.90
65195;DHT22;64548;-32.886;-68.826;2022-10-31T04:38:15;12.00;18.20
65195;DHT22;64548;-32.886;-68.826;2022-10-31T04:40:44;12.40;18.60
65195;DHT22;64548;-32.886;-68.826;2022-10-31T04:43:40;9.70;17.50
65195;DHT22;64548;-32.886;-68.826;2022-10-31T04:46:08;11.90;18.90
65195;DHT22;64548;-32.886;-68.826;2022-10-31T04:48:38;11.70;19.50
65195;DHT22;64548;-32.886;-68.826;2022-10-31T04:51:06;11.70;19.60
65195;DHT22;64548;-32.886;-68.826;2022-10-31T04:53:35;8.80;17.60
65195;DHT22;64548;-32.886;-68.826;2022-10-31T04:56:03;10.30;18.00
65195;DHT22;64548;-32.886;-68.826;2022-10-31T04:58:31;11.70;19.70
65195;DHT22;64548;-32.886;-68.826;2022-10-31T05:01:00;11.70;20.10
65195;DHT22;64548;-32.886;-68.826;2022-10-31T05:03:28;11.60;20.30
65195;DHT22;64548;-32.886;-68.826;2022-10-31T05:05:59;11.60;20.20
65195;DHT22;64548;-32.886;-68.826;2022-10-31T05:08:33;9.60;18.80
65195;DHT22;64548;-32.886;-68.826;2022-10-31T05:11:02;11.60;19.90
65195;DHT22;64548;-32.886;-68.826;2022-10-31T05:13:33;10.00;18.40
65195;DHT22;64548;-32.886;-68.826;2022-10-31T05:16:01;11.60;20.40
65195;DHT22;64548;-32.886;-68.826;2022-10-31T05:18:30;10.70;19.60
65195;DHT22;64548;-32.886;-68.826;2022-10-31T05:21:01;11.60;20.70
65195;DHT22;64548;-32.886;-68.826;2022-10-31T05:23:29;11.40;20.30
65195;DHT22;64548;-32.886;-68.826;2022-10-31T05:25:58;11.40;20.50
65195;DHT22;64548;-32.886;-68.826;2022-10-31T05:28:26;11.40;20.30
65195;DHT22;64548;-32.886;-68.826;2022-10-31T05:30:54;11.40;20.40
65195;DHT22;64548;-32.886;-68.826;2022-10-31T05:33:22;11.80;20.70
65195;DHT22;64548;-32.886;-68.826;2022-10-31T05:35:50;11.80;20.70
65195;DHT22;64548;-32.886;-68.826;2022-10-31T05:38:19;10.50;19.30
65195;DHT22;64548;-32.886;-68.826;2022-10-31T05:40:47;11.70;20.80
65195;DHT22;64548;-32.886;-68.826;2022-10-31T05:43:15;9.80;19.80
65195;DHT22;64548;-32.886;-68.826;2022-10-31T05:45:43;11.70;20.70
65195;DHT22;64548;-32.886;-68.826;2022-10-31T05:48:13;11.70;20.70
65195;DHT22;64548;-32.886;-68.826;2022-10-31T05:50:42;9.60;19.40
65195;DHT22;64548;-32.886;-68.826;2022-10-31T05:53:10;11.60;20.50
65195;DHT22;64548;-32.886;-68.826;2022-10-31T05:55:38;11.40;20.60
65195;DHT22;64548;-32.886;-68.826;2022-10-31T05:58:08;9.20;19.30
65195;DHT22;64548;-32.886;-68.826;2022-10-31T06:00:36;11.40;20.70
65195;DHT22;64548;-32.886;-68.826;2022-10-31T06:03:07;11.40;20.50
65195;DHT22;64548;-32.886;-68.826;2022-10-31T06:05:35;11.50;20.70
65195;DHT22;64548;-32.886;-68.826;2022-10-31T06:08:04;11.30;20.60
65195;DHT22;64548;-32.886;-68.826;2022-10-31T06:10:32;11.30;20.70
65195;DHT22;64548;-32.886;-68.826;2022-10-31T06:13:00;9.00;19.50
65195;DHT22;64548;-32.886;-68.826;2022-10-31T06:15:28;13.10;23.20
65195;DHT22;64548;-32.886;-68.826;2022-10-31T06:18:05;11.30;21.30
65195;DHT22;64548;-32.886;-68.826;2022-10-31T06:20:33;11.50;21.40
65195;DHT22;64548;-32.886;-68.826;2022-10-31T06:23:02;10.50;20.30
65195;DHT22;64548;-32.886;-68.826;2022-10-31T06:25:30;11.40;21.80
65195;DHT22;64548;-32.886;-68.826;2022-10-31T06:27:58;11.10;21.60
65195;DHT22;64548;-32.886;-68.826;2022-10-31T06:30:27;8.50;19.90
65195;DHT22;64548;-32.886;-68.826;2022-10-31T06:33:00;11.00;21.30
65195;DHT22;64548;-32.886;-68.826;2022-10-31T06:35:29;11.30;21.50
65195;DHT22;64548;-32.886;-68.826;2022-10-31T06:37:57;11.20;21.10
65195;DHT22;64548;-32.886;-68.826;2022-10-31T06:40:25;11.30;21.10
65195;DHT22;64548;-32.886;-68.826;2022-10-31T06:42:58;11.40;21.10
65195;DHT22;64548;-32.886;-68.826;2022-10-31T06:45:28;11.80;21.40
65195;DHT22;64548;-32.886;-68.826;2022-10-31T06:47:57;11.60;20.60
65195;DHT22;64548;-32.886;-68.826;2022-10-31T06:50:25;11.60;20.60
65195;DHT22;64548;-32.886;-68.826;2022-10-31T06:52:56;9.80;20.00
65195;DHT22;64548;-32.886;-68.826;2022-10-31T06:55:26;11.50;20.50
65195;DHT22;64548;-32.886;-68.826;2022-10-31T06:57:59;11.50;20.50
65195;DHT22;64548;-32.886;-68.826;2022-10-31T07:00:29;11.50;20.30
65195;DHT22;64548;-32.886;-68.826;2022-10-31T07:02:58;11.30;19.90
65195;DHT22;64548;-32.886;-68.826;2022-10-31T07:05:28;11.30;20.20
65195;DHT22;64548;-32.886;-68.826;2022-10-31T07:08:02;11.40;20.40
65195;DHT22;64548;-32.886;-68.826;2022-10-31T07:10:35;11.40;20.40
65195;DHT22;64548;-32.886;-68.826;2022-10-31T07:13:06;11.50;20.40
65195;DHT22;64548;-32.886;-68.826;2022-10-31T07:15:36;11.50;20.50
65195;DHT22;64548;-32.886;-68.826;2022-10-31T07:18:09;11.50;20.40
65195;DHT22;64548;-32.886;-68.826;2022-10-31T07:20:38;11.40;20.40
65195;DHT22;64548;-32.886;-68.826;2022-10-31T07:26:17;11.40;20.90
65195;DHT22;64548;-32.886;-68.826;2022-10-31T07:28:46;11.20;20.70
65195;DHT22;64548;-32.886;-68.826;2022-10-31T07:31:15;9.00;19.80
65195;DHT22;64548;-32.886;-68.826;2022-10-31T07:33:43;11.30;21.80
65195;DHT22;64548;-32.886;-68.826;2022-10-31T07:36:11;11.20;21.90
65195;DHT22;64548;-32.886;-68.826;2022-10-31T07:38:39;11.00;22.00
65195;DHT22;64548;-32.886;-68.826;2022-10-31T07:41:08;10.70;22.10
65195;DHT22;64548;-32.886;-68.826;2022-10-31T07:43:37;11.20;22.50
65195;DHT22;64548;-32.886;-68.826;2022-10-31T07:46:05;11.40;22.90
65195;DHT22;64548;-32.886;-68.826;2022-10-31T07:48:33;11.30;22.70
65195;DHT22;64548;-32.886;-68.826;2022-10-31T07:51:01;9.10;21.50
65195;DHT22;64548;-32.886;-68.826;2022-10-31T07:53:29;11.40;22.40
65195;DHT22;64548;-32.886;-68.826;2022-10-31T07:55:57;7.70;19.50
65195;DHT22;64548;-32.886;-68.826;2022-10-31T07:58:25;11.30;22.30
65195;DHT22;64548;-32.886;-68.826;2022-10-31T08:00:53;10.90;21.50
65195;DHT22;64548;-32.886;-68.826;2022-10-31T08:03:22;11.70;22.50
65195;DHT22;64548;-32.886;-68.826;2022-10-31T08:05:50;11.50;21.50
65195;DHT22;64548;-32.886;-68.826;2022-10-31T08:08:18;11.30;21.40
65195;DHT22;64548;-32.886;-68.826;2022-10-31T08:10:46;11.30;21.60
65195;DHT22;64548;-32.886;-68.826;2022-10-31T08:13:14;11.20;21.50
65195;DHT22;64548;-32.886;-68.826;2022-10-31T08:15:43;11.30;21.80
65195;DHT22;64548;-32.886;-68.826;2022-10-31T08:18:15;11.40;21.50
65195;DHT22;64548;-32.886;-68.826;2022-10-31T08:20:44;9.50;20.60
65195;DHT22;64548;-32.886;-68.826;2022-10-31T08:23:13;8.60;19.60
65195;DHT22;64548;-32.886;-68.826;2022-10-31T08:25:41;8.60;19.50
65195;DHT22;64548;-32.886;-68.826;2022-10-31T08:28:11;11.20;21.10
65195;DHT22;64548;-32.886;-68.826;2022-10-31T08:30:40;11.00;20.90
65195;DHT22;64548;-32.886;-68.826;2022-10-31T08:33:14;11.30;21.60
65195;DHT22;64548;-32.886;-68.826;2022-10-31T08:35:43;11.30;21.50
65195;DHT22;64548;-32.886;-68.826;2022-10-31T08:38:13;11.30;21.60
65195;DHT22;64548;-32.886;-68.826;2022-10-31T08:40:42;11.10;21.10
65195;DHT22;64548;-32.886;-68.826;2022-10-31T08:43:16;8.00;19.00
65195;DHT22;64548;-32.886;-68.826;2022-10-31T08:45:48;11.20;21.40
65195;DHT22;64548;-32.886;-68.826;2022-10-31T08:48:17;11.50;21.50
65195;DHT22;64548;-32.886;-68.826;2022-10-31T08:50:46;8.90;19.80
65195;DHT22;64548;-32.886;-68.826;2022-10-31T08:53:17;11.20;20.80
65195;DHT22;64548;-32.886;-68.826;2022-10-31T08:55:46;11.30;20.90
65195;DHT22;64548;-32.886;-68.826;2022-10-31T08:58:18;11.50;21.60
65195;DHT22;64548;-32.886;-68.826;2022-10-31T09:00:49;10.90;20.70
65195;DHT22;64548;-32.886;-68.826;2022-10-31T09:03:27;11.00;20.30
65195;DHT22;64548;-32.886;-68.826;2022-10-31T09:05:58;11.30;20.90
65195;DHT22;64548;-32.886;-68.826;2022-10-31T09:08:28;11.30;21.30
65195;DHT22;64548;-32.886;-68.826;2022-10-31T09:10:57;11.20;20.70
65195;DHT22;64548;-32.886;-68.826;2022-10-31T09:13:25;10.60;20.30
65195;DHT22;64548;-32.886;-68.826;2022-10-31T09:15:53;11.30;21.20
65195;DHT22;64548;-32.886;-68.826;2022-10-31T09:18:23;10.40;20.30
65195;DHT22;64548;-32.886;-68.826;2022-10-31T09:20:52;11.20;21.40
65195;DHT22;64548;-32.886;-68.826;2022-10-31T09:23:22;11.30;21.10
65195;DHT22;64548;-32.886;-68.826;2022-10-31T09:25:54;13.40;23.90
65195;DHT22;64548;-32.886;-68.826;2022-10-31T09:28:24;11.30;21.50
65195;DHT22;64548;-32.886;-68.826;2022-10-31T09:30:54;11.30;21.40
65195;DHT22;64548;-32.886;-68.826;2022-10-31T09:33:22;11.40;22.00
65195;DHT22;64548;-32.886;-68.826;2022-10-31T09:35:50;11.30;21.30
65195;DHT22;64548;-32.886;-68.826;2022-10-31T09:38:20;11.30;21.20
65195;DHT22;64548;-32.886;-68.826;2022-10-31T09:44:05;11.50;21.60
65195;DHT22;64548;-32.886;-68.826;2022-10-31T09:46:57;11.60;21.60
65195;DHT22;64548;-32.886;-68.826;2022-10-31T09:52:39;11.70;21.80
65195;DHT22;64548;-32.886;-68.826;2022-10-31T09:57:41;11.50;21.60
65195;DHT22;64548;-32.886;-68.826;2022-10-31T10:00:21;11.70;22.20
65195;DHT22;64548;-32.886;-68.826;2022-10-31T10:03:07;11.60;21.70
65195;DHT22;64548;-32.886;-68.826;2022-10-31T10:05:51;11.60;21.00
65195;DHT22;64548;-32.886;-68.826;2022-10-31T10:08:26;11.50;21.20
65195;DHT22;64548;-32.886;-68.826;2022-10-31T10:19:29;11.90;22.20
65195;DHT22;64548;-32.886;-68.826;2022-10-31T10:22:04;11.70;21.30
65195;DHT22;64548;-32.886;-68.826;2022-10-31T10:27:31;11.40;20.50
65195;DHT22;64548;-32.886;-68.826;2022-10-31T10:30:13;11.30;20.30
65195;DHT22;64548;-32.886;-68.826;2022-10-31T10:32:59;11.00;20.10
65195;DHT22;64548;-32.886;-68.826;2022-10-31T10:35:34;11.30;20.80
65195;DHT22;64548;-32.886;-68.826;2022-10-31T10:38:45;11.20;20.80
65195;DHT22;64548;-32.886;-68.826;2022-10-31T10:41:22;11.20;20.70
65195;DHT22;64548;-32.886;-68.826;2022-10-31T10:43:52;13.40;23.30
65195;DHT22;64548;-32.886;-68.826;2022-10-31T10:49:51;11.60;20.50
65195;DHT22;64548;-32.886;-68.826;2022-10-31T10:58:04;11.70;19.40
65195;DHT22;64548;-32.886;-68.826;2022-10-31T11:00:46;11.80;19.90
65195;DHT22;64548;-32.886;-68.826;2022-10-31T11:03:16;12.00;19.40
65195;DHT22;64548;-32.886;-68.826;2022-10-31T11:05:58;11.70;19.20
65195;DHT22;64548;-32.886;-68.826;2022-10-31T11:08:32;12.20;19.30
65195;DHT22;64548;-32.886;-68.826;2022-10-31T11:11:25;12.40;19.40
65195;DHT22;64548;-32.886;-68.826;2022-10-31T11:14:05;12.50;19.50
65195;DHT22;64548;-32.886;-68.826;2022-10-31T11:16:45;10.60;16.60
65195;DHT22;64548;-32.886;-68.826;2022-10-31T11:19:25;11.70;18.60
65195;DHT22;64548;-32.886;-68.826;2022-10-31T11:22:06;12.40;18.50
65195;DHT22;64548;-32.886;-68.826;2022-10-31T11:24:42;12.70;18.40
65195;DHT22;64548;-32.886;-68.826;2022-10-31T11:27:19;12.50;18.70
65195;DHT22;64548;-32.886;-68.826;2022-10-31T11:29:48;12.50;18.20
65195;DHT22;64548;-32.886;-68.826;2022-10-31T11:32:26;12.50;18.90
65195;DHT22;64548;-32.886;-68.826;2022-10-31T11:34:59;12.60;19.00
65195;DHT22;64548;-32.886;-68.826;2022-10-31T11:37:32;12.50;18.20
65195;DHT22;64548;-32.886;-68.826;2022-10-31T11:40:14;11.00;16.90
65195;DHT22;64548;-32.886;-68.826;2022-10-31T11:42:44;12.60;18.80
65195;DHT22;64548;-32.886;-68.826;2022-10-31T11:45:33;12.60;18.40
65195;DHT22;64548;-32.886;-68.826;2022-10-31T11:48:17;12.40;18.60
65195;DHT22;64548;-32.886;-68.826;2022-10-31T11:50:52;13.30;19.40
65195;DHT22;64548;-32.886;-68.826;2022-10-31T11:53:32;11.40;17.40
65195;DHT22;64548;-32.886;-68.826;2022-10-31T11:56:13;12.70;18.90
65195;DHT22;64548;-32.886;-68.826;2022-10-31T11:58:43;12.80;18.80
65195;DHT22;64548;-32.886;-68.826;2022-10-31T12:01:28;11.70;16.70
65195;DHT22;64548;-32.886;-68.826;2022-10-31T12:04:10;12.80;19.00
65195;DHT22;64548;-32.886;-68.826;2022-10-31T12:06:41;12.70;19.10
65195;DHT22;64548;-32.886;-68.826;2022-10-31T12:09:21;12.80;18.90
65195;DHT22;64548;-32.886;-68.826;2022-10-31T12:15:09;13.00;18.30
65195;DHT22;64548;-32.886;-68.826;2022-10-31T12:29:08;13.30;18.90
65195;DHT22;64548;-32.886;-68.826;2022-10-31T12:32:46;13.40;18.20
65195;DHT22;64548;-32.886;-68.826;2022-10-31T12:35:15;13.40;18.20
65195;DHT22;64548;-32.886;-68.826;2022-10-31T12:43:36;13.70;18.00
65195;DHT22;64548;-32.886;-68.826;2022-10-31T12:52:09;13.80;18.20
65195;DHT22;64548;-32.886;-68.826;2022-10-31T13:00:04;12.80;17.20
65195;DHT22;64548;-32.886;-68.826;2022-10-31T13:02:56;14.20;17.70
65195;DHT22;64548;-32.886;-68.826;2022-10-31T13:05:41;14.20;18.20
65195;DHT22;64548;-32.886;-68.826;2022-10-31T13:08:12;12.60;17.00
65195;DHT22;64548;-32.886;-68.826;2022-10-31T13:10:59;14.40;18.50
65195;DHT22;64548;-32.886;-68.826;2022-10-31T13:13:42;14.50;18.70
65195;DHT22;64548;-32.886;-68.826;2022-10-31T13:16:17;14.60;18.60
65195;DHT22;64548;-32.886;-68.826;2022-10-31T13:25:11;14.40;18.20
65195;DHT22;64548;-32.886;-68.826;2022-10-31T13:30:32;14.20;17.60
65195;DHT22;64548;-32.886;-68.826;2022-10-31T13:33:17;12.60;16.30
65195;DHT22;64548;-32.886;-68.826;2022-10-31T13:38:45;14.70;18.00
65195;DHT22;64548;-32.886;-68.826;2022-10-31T13:44:25;14.50;18.20
65195;DHT22;64548;-32.886;-68.826;2022-10-31T13:46:57;14.40;18.10
65195;DHT22;64548;-32.886;-68.826;2022-10-31T13:52:13;14.30;18.10
65195;DHT22;64548;-32.886;-68.826;2022-10-31T13:54:45;14.40;18.50
65195;DHT22;64548;-32.886;-68.826;2022-10-31T14:00:24;11.40;14.70
65195;DHT22;64548;-32.886;-68.826;2022-10-31T14:02:57;14.70;18.10
65195;DHT22;64548;-32.886;-68.826;2022-10-31T14:05:35;14.70;18.20
65195;DHT22;64548;-32.886;-68.826;2022-10-31T14:08:06;14.70;17.60
65195;DHT22;64548;-32.886;-68.826;2022-10-31T14:10:52;14.70;17.80
65195;DHT22;64548;-32.886;-68.826;2022-10-31T14:13:34;15.20;18.20
65195;DHT22;64548;-32.886;-68.826;2022-10-31T14:19:05;14.90;18.00
65195;DHT22;64548;-32.886;-68.826;2022-10-31T14:21:46;13.80;16.80
65195;DHT22;64548;-32.886;-68.826;2022-10-31T14:27:34;15.20;17.30
65195;DHT22;64548;-32.886;-68.826;2022-10-31T14:30:13;15.20;17.40
65195;DHT22;64548;-32.886;-68.826;2022-10-31T14:32:43;15.20;17.90
65195;DHT22;64548;-32.886;-68.826;2022-10-31T14:35:16;15.50;17.30
65195;DHT22;64548;-32.886;-68.826;2022-10-31T14:51:48;16.00;17.30
65195;DHT22;64548;-32.886;-68.826;2022-10-31T14:54:41;15.20;16.40
65195;DHT22;64548;-32.886;-68.826;2022-10-31T14:57:25;16.10;16.80
65195;DHT22;64548;-32.886;-68.826;2022-10-31T15:00:07;16.00;18.40
65195;DHT22;64548;-32.886;-68.826;2022-10-31T15:05:27;16.40;17.50
65195;DHT22;64548;-32.886;-68.826;2022-10-31T15:07:59;16.30;17.10
65195;DHT22;64548;-32.886;-68.826;2022-10-31T15:10:35;16.30;17.20
65195;DHT22;64548;-32.886;-68.826;2022-10-31T15:13:20;18.80;20.20
65195;DHT22;64548;-32.886;-68.826;2022-10-31T15:15:55;16.70;17.00
65195;DHT22;64548;-32.886;-68.826;2022-10-31T15:18:28;16.50;16.30
65195;DHT22;64548;-32.886;-68.826;2022-10-31T15:20:57;16.40;17.10
65195;DHT22;64548;-32.886;-68.826;2022-10-31T15:23:30;16.40;16.80
65195;DHT22;64548;-32.886;-68.826;2022-10-31T15:26:00;16.80;17.20
65195;DHT22;64548;-32.886;-68.826;2022-10-31T15:28:29;14.10;14.10
65195;DHT22;64548;-32.886;-68.826;2022-10-31T15:31:02;15.90;15.50
65195;DHT22;64548;-32.886;-68.826;2022-10-31T15:33:51;14.40;14.00
65195;DHT22;64548;-32.886;-68.826;2022-10-31T15:36:24;16.60;16.30
65195;DHT22;64548;-32.886;-68.826;2022-10-31T15:38:56;17.00;16.70
65195;DHT22;64548;-32.886;-68.826;2022-10-31T15:41:47;17.20;17.40
65195;DHT22;64548;-32.886;-68.826;2022-10-31T15:44:21;17.50;17.30
65195;DHT22;64548;-32.886;-68.826;2022-10-31T15:47:04;15.00;14.00
65195;DHT22;64548;-32.886;-68.826;2022-10-31T15:49:39;17.80;16.60
65195;DHT22;64548;-32.886;-68.826;2022-10-31T15:52:15;17.80;16.60
65195;DHT22;64548;-32.886;-68.826;2022-10-31T15:54:50;17.70;16.90
65195;DHT22;64548;-32.886;-68.826;2022-10-31T15:57:19;16.80;15.90
65195;DHT22;64548;-32.886;-68.826;2022-10-31T15:59:49;17.90;17.50
65195;DHT22;64548;-32.886;-68.826;2022-10-31T16:02:26;18.50;17.60
65195;DHT22;64548;-32.886;-68.826;2022-10-31T16:04:58;18.00;17.00
65195;DHT22;64548;-32.886;-68.826;2022-10-31T16:07:31;18.20;17.40
65195;DHT22;64548;-32.886;-68.826;2022-10-31T16:10:02;16.70;15.60
65195;DHT22;64548;-32.886;-68.826;2022-10-31T16:12:45;18.40;16.60
65195;DHT22;64548;-32.886;-68.826;2022-10-31T16:15:19;18.80;17.20
65195;DHT22;64548;-32.886;-68.826;2022-10-31T16:17:50;18.60;16.60
65195;DHT22;64548;-32.886;-68.826;2022-10-31T16:20:26;15.50;13.20
65195;DHT22;64548;-32.886;-68.826;2022-10-31T16:22:57;18.30;16.50
65195;DHT22;64548;-32.886;-68.826;2022-10-31T16:25:37;18.30;16.40
65195;DHT22;64548;-32.886;-68.826;2022-10-31T16:28:20;18.20;16.60
65195;DHT22;64548;-32.886;-68.826;2022-10-31T16:30:51;22.10;20.60
65195;DHT22;64548;-32.886;-68.826;2022-10-31T16:33:32;18.10;16.50
65195;DHT22;64548;-32.886;-68.826;2022-10-31T16:38:48;18.40;16.60
65195;DHT22;64548;-32.886;-68.826;2022-10-31T16:41:16;18.40;16.90
65195;DHT22;64548;-32.886;-68.826;2022-10-31T16:43:44;18.40;16.30
65195;DHT22;64548;-32.886;-68.826;2022-10-31T16:46:23;18.60;16.40
65195;DHT22;64548;-32.886;-68.826;2022-10-31T16:48:53;18.50;16.70
65195;DHT22;64548;-32.886;-68.826;2022-10-31T16:51:21;18.70;16.70
65195;DHT22;64548;-32.886;-68.826;2022-10-31T16:53:55;18.50;16.80
65195;DHT22;64548;-32.886;-68.826;2022-10-31T16:56:32;19.00;17.10
65195;DHT22;64548;-32.886;-68.826;2022-10-31T16:59:03;18.10;16.20
65195;DHT22;64548;-32.886;-68.826;2022-10-31T17:01:32;18.30;16.50
65195;DHT22;64548;-32.886;-68.826;2022-10-31T17:04:02;19.20;17.40
65195;DHT22;64548;-32.886;-68.826;2022-10-31T17:06:30;18.50;16.60
65195;DHT22;64548;-32.886;-68.826;2022-10-31T17:08:58;18.40;16.90
65195;DHT22;64548;-32.886;-68.826;2022-10-31T17:11:27;18.50;16.50
65195;DHT22;64548;-32.886;-68.826;2022-10-31T17:13:55;18.30;16.30
65195;DHT22;64548;-32.886;-68.826;2022-10-31T17:16:24;18.50;16.90
65195;DHT22;64548;-32.886;-68.826;2022-10-31T17:18:52;18.50;16.70
65195;DHT22;64548;-32.886;-68.826;2022-10-31T17:21:22;18.60;17.10
65195;DHT22;64548;-32.886;-68.826;2022-10-31T17:23:51;18.50;16.40
65195;DHT22;64548;-32.886;-68.826;2022-10-31T17:26:20;18.60;16.60
65195;DHT22;64548;-32.886;-68.826;2022-10-31T17:28:49;18.40;16.10
65195;DHT22;64548;-32.886;-68.826;2022-10-31T17:31:37;17.90;16.00
65195;DHT22;64548;-32.886;-68.826;2022-10-31T17:34:06;18.00;16.30
65195;DHT22;64548;-32.886;-68.826;2022-10-31T17:36:35;18.30;16.30
65195;DHT22;64548;-32.886;-68.826;2022-10-31T17:39:04;18.30;15.70
65195;DHT22;64548;-32.886;-68.826;2022-10-31T17:41:36;21.00;19.30
65195;DHT22;64548;-32.886;-68.826;2022-10-31T17:44:04;18.00;16.20